createdAt,value
2023-01-05T00:01:17.215Z,-0.10
2023-01-05T00:03:57.428Z,-0.10
2023-01-05T00:06:44.144Z,-0.10
2023-01-05T00:09:31.252Z,0.00
2023-01-05T00:12:30.249Z,-0.10
2023-01-05T00:15:36.146Z,-0.10
2023-01-05T00:18:38.242Z,-0.10
2023-01-05T00:21:44.069Z,-0.20
2023-01-05T00:24:24.228Z,-0.10
2023-01-05T00:27:11.311Z,-0.10
2023-01-05T00:29:51.232Z,-0.10
2023-01-05T00:32:38.400Z,-0.10
2023-01-05T00:35:19.292Z,-0.10
2023-01-05T00:38:07.294Z,-0.10
2023-01-05T00:40:47.214Z,-0.10
2023-01-05T00:43:34.281Z,-0.10
2023-01-05T00:46:21.446Z,-0.10
2023-01-05T00:49:01.301Z,-0.10
2023-01-05T00:51:48.381Z,-0.10
2023-01-05T00:54:28.294Z,-0.10
2023-01-05T00:57:17.305Z,-0.10
2023-01-05T01:00:00.288Z,-0.10
2023-01-05T01:02:48.437Z,-0.20
2023-01-05T01:05:29.285Z,-0.20
2023-01-05T01:08:09.533Z,-0.20
2023-01-05T01:10:56.289Z,-0.20
2023-01-05T01:13:43.417Z,-0.20
2023-01-05T01:16:23.315Z,-0.10
2023-01-05T01:19:10.448Z,-0.20
2023-01-05T01:21:50.264Z,-0.20
2023-01-05T01:24:37.374Z,-0.20
2023-01-05T01:27:19.327Z,-0.20
2023-01-05T01:30:06.474Z,-0.20
2023-01-05T01:32:46.329Z,-0.20
2023-01-05T01:35:33.384Z,-0.20
2023-01-05T01:38:14.252Z,-0.20
2023-01-05T01:41:02.444Z,-0.10
2023-01-05T01:44:02.327Z,-0.20
2023-01-05T01:46:56.256Z,-0.20
2023-01-05T01:49:43.383Z,-0.20
2023-01-05T01:52:23.379Z,-0.10
2023-01-05T01:55:11.467Z,-0.10
2023-01-05T01:57:52.321Z,-0.20
2023-01-05T02:00:39.424Z,-0.20
2023-01-05T02:03:19.407Z,-0.20
2023-01-05T02:06:07.532Z,-0.20
2023-01-05T02:08:47.344Z,-0.20
2023-01-05T02:11:37.482Z,-0.20
2023-01-05T02:14:27.340Z,-0.20
2023-01-05T02:17:34.432Z,-0.20
2023-01-05T02:20:17.401Z,-0.20
2023-01-05T02:23:21.294Z,-0.20
2023-01-05T02:26:07.453Z,-0.10
2023-01-05T02:29:03.307Z,-0.10
2023-01-05T02:31:47.490Z,-0.10
2023-01-05T02:34:44.369Z,-0.10
2023-01-05T02:37:30.396Z,-0.20
2023-01-05T02:40:28.405Z,-0.20
2023-01-05T02:43:11.467Z,-0.20
2023-01-05T02:45:58.463Z,-0.20
2023-01-05T02:48:39.424Z,-0.20
2023-01-05T02:51:29.496Z,-0.20
2023-01-05T02:54:10.507Z,-0.20
2023-01-05T02:57:01.421Z,-0.20
2023-01-05T02:59:48.460Z,-0.20
2023-01-05T03:02:37.467Z,-0.30
2023-01-05T03:05:22.508Z,-0.20
2023-01-05T03:08:15.427Z,-0.30
2023-01-05T03:11:28.502Z,-0.30
2023-01-05T03:14:33.582Z,-0.20
2023-01-05T03:17:16.646Z,-0.20
2023-01-05T03:20:03.716Z,-0.30
2023-01-05T03:23:03.431Z,-0.30
2023-01-05T03:26:09.095Z,-0.30
2023-01-05T03:29:17.410Z,-0.30
2023-01-05T03:32:35.189Z,-0.30
2023-01-05T03:35:37.666Z,-0.30
2023-01-05T03:38:18.537Z,-0.30
2023-01-05T03:41:10.358Z,-0.30
2023-01-05T03:43:53.376Z,-0.40
2023-01-05T03:46:50.534Z,-0.30
2023-01-05T03:49:39.460Z,-0.40
2023-01-05T03:52:19.545Z,-0.40
2023-01-05T03:55:08.473Z,-0.40
2023-01-05T03:57:56.491Z,-0.30
2023-01-05T04:00:36.724Z,-0.30
2023-01-05T04:03:31.429Z,-0.30
2023-01-05T04:06:22.823Z,-0.30
2023-01-05T04:09:02.505Z,-0.30
2023-01-05T04:11:52.493Z,-0.40
2023-01-05T04:14:32.467Z,-0.40
2023-01-05T04:17:19.656Z,-0.40
2023-01-05T04:20:00.523Z,-0.40
2023-01-05T04:22:47.610Z,-0.40
2023-01-05T04:25:29.421Z,-0.40
2023-01-05T04:28:20.712Z,-0.40
2023-01-05T04:31:10.526Z,-0.40
2023-01-05T04:33:58.540Z,-0.40
2023-01-05T04:36:45.677Z,-0.30
2023-01-05T04:39:34.484Z,-0.40
2023-01-05T04:42:22.428Z,-0.40
2023-01-05T04:45:09.437Z,-0.40
2023-01-05T04:47:57.587Z,-0.40
2023-01-05T04:50:37.491Z,-0.40
2023-01-05T04:53:24.821Z,-0.40
2023-01-05T04:56:04.500Z,-0.40
2023-01-05T04:58:55.614Z,-0.40
2023-01-05T05:01:36.599Z,-0.40
2023-01-05T05:04:25.634Z,-0.40
2023-01-05T05:07:06.522Z,-0.40
2023-01-05T05:09:53.631Z,-0.40
2023-01-05T05:12:35.583Z,-0.40
2023-01-05T05:15:23.655Z,-0.40
2023-01-05T05:18:09.241Z,-0.40
2023-01-05T05:20:57.556Z,-0.40
2023-01-05T05:23:40.535Z,-0.40
2023-01-05T05:26:27.630Z,-0.40
2023-01-05T05:29:07.575Z,-0.40
2023-01-05T05:31:54.701Z,-0.40
2023-01-05T05:34:34.540Z,-0.50
2023-01-05T05:37:21.577Z,-0.50
2023-01-05T05:40:01.593Z,-0.50
2023-01-05T05:43:03.573Z,-0.50
2023-01-05T05:45:51.135Z,-0.50
2023-01-05T05:48:37.557Z,-0.50
2023-01-05T05:51:17.688Z,-0.50
2023-01-05T05:54:04.556Z,-0.40
2023-01-05T05:56:44.689Z,-0.40
2023-01-05T05:59:31.606Z,-0.40
2023-01-05T06:02:11.869Z,-0.50
2023-01-05T06:04:58.558Z,-0.50
2023-01-05T06:07:38.655Z,-0.50
2023-01-05T06:10:25.583Z,-0.60
2023-01-05T06:13:05.702Z,-0.60
2023-01-05T06:15:56.321Z,-0.70
2023-01-05T06:18:36.630Z,-0.70
2023-01-05T06:21:23.570Z,-0.70
2023-01-05T06:24:03.765Z,-0.70
2023-01-05T06:26:50.599Z,-0.70
2023-01-05T06:29:30.713Z,-0.80
2023-01-05T06:32:17.639Z,-0.80
2023-01-05T06:34:57.709Z,-0.80
2023-01-05T06:37:44.625Z,-0.70
2023-01-05T06:40:24.725Z,-0.70
2023-01-05T06:43:11.599Z,-0.80
2023-01-05T06:45:59.718Z,-0.80
2023-01-05T06:48:46.687Z,-0.70
2023-01-05T06:51:26.615Z,-0.80
2023-01-05T06:54:13.858Z,-0.80
2023-01-05T06:56:53.637Z,-0.80
2023-01-05T06:59:33.895Z,-0.90
2023-01-05T07:02:30.556Z,-0.90
2023-01-05T07:05:10.845Z,-0.80
2023-01-05T07:07:57.616Z,-0.80
2023-01-05T07:10:44.688Z,-0.90
2023-01-05T07:13:24.637Z,-0.90
2023-01-05T07:16:11.722Z,-0.90
2023-01-05T07:18:51.625Z,-1.00
2023-01-05T07:21:38.741Z,-0.90
2023-01-05T07:24:18.594Z,-1.00
2023-01-05T07:27:01.910Z,-1.00
2023-01-05T07:29:52.573Z,-1.00
2023-01-05T07:32:39.781Z,-0.90
2023-01-05T07:35:19.685Z,-0.90
2023-01-05T07:38:06.828Z,-0.90
2023-01-05T07:40:53.689Z,-1.00
2023-01-05T07:43:40.677Z,-1.00
2023-01-05T07:46:34.659Z,-1.10
2023-01-05T07:49:21.651Z,-1.10
2023-01-05T07:52:01.776Z,-1.10
2023-01-05T07:54:48.653Z,-1.10
2023-01-05T07:57:28.697Z,-1.00
2023-01-05T08:00:16.663Z,-1.00
2023-01-05T08:02:56.793Z,-1.00
2023-01-05T08:05:43.686Z,-0.90
2023-01-05T08:08:24.654Z,-0.90
2023-01-05T08:11:12.676Z,-0.90
2023-01-05T08:14:03.081Z,-0.90
2023-01-05T08:16:49.699Z,-0.80
2023-01-05T08:19:29.781Z,-0.90
2023-01-05T08:22:23.665Z,-0.90
2023-01-05T08:25:10.740Z,-1.00
2023-01-05T08:27:57.799Z,-1.00
2023-01-05T08:30:37.768Z,-1.00
2023-01-05T08:33:24.737Z,-1.00
2023-01-05T08:36:04.664Z,-1.10
2023-01-05T08:38:51.757Z,-1.10
2023-01-05T08:41:34.696Z,-1.00
2023-01-05T08:44:21.865Z,-1.10
2023-01-05T08:47:01.714Z,-1.10
2023-01-05T08:49:50.029Z,-1.20
2023-01-05T08:52:29.764Z,-1.20
2023-01-05T08:55:16.848Z,-1.20
2023-01-05T08:57:56.706Z,-1.20
2023-01-05T09:00:43.885Z,-1.20
2023-01-05T09:06:12.191Z,-1.20
2023-01-05T09:08:52.694Z,-1.20
2023-01-05T09:11:40.172Z,-1.20
2023-01-05T09:14:22.712Z,-1.20
2023-01-05T09:17:07.373Z,-1.20
2023-01-05T09:19:54.739Z,-1.20
2023-01-05T09:22:41.779Z,-1.20
2023-01-05T09:25:21.765Z,-1.10
2023-01-05T09:28:08.934Z,-1.10
2023-01-05T09:30:50.807Z,-1.00
2023-01-05T09:33:44.783Z,-0.80
2023-01-05T09:36:32.721Z,-0.70
2023-01-05T09:39:13.775Z,-0.70
2023-01-05T09:42:06.169Z,-0.80
2023-01-05T09:44:47.782Z,-0.80
2023-01-05T09:47:53.936Z,-0.70
2023-01-05T09:50:41.149Z,-0.70
2023-01-05T09:53:21.824Z,-0.50
2023-01-05T09:56:08.784Z,-0.40
2023-01-05T09:58:51.805Z,-0.30
2023-01-05T10:01:39.864Z,-0.30
2023-01-05T10:04:26.644Z,-0.30
2023-01-05T10:07:24.805Z,-0.50
2023-01-05T10:10:06.826Z,-0.80
2023-01-05T10:13:10.797Z,-1.00
2023-01-05T10:15:59.298Z,-1.10
2023-01-05T10:18:45.970Z,-1.10
2023-01-05T10:21:36.868Z,-1.00
2023-01-05T10:24:47.798Z,-1.10
2023-01-05T10:27:56.538Z,-1.10
2023-01-05T10:30:53.019Z,-1.00
2023-01-05T10:33:53.193Z,-1.00
2023-01-05T10:37:08.874Z,-1.10
2023-01-05T10:39:56.668Z,-1.10
2023-01-05T10:42:52.969Z,-1.30
2023-01-05T10:45:34.836Z,-1.30
2023-01-05T10:48:29.819Z,-1.40
2023-01-05T10:51:16.861Z,-1.40
2023-01-05T10:53:57.853Z,-1.40
2023-01-05T10:56:44.983Z,-1.40
2023-01-05T10:59:24.845Z,-1.40
2023-01-05T11:02:19.118Z,-1.60
2023-01-05T11:04:58.926Z,-1.60
2023-01-05T11:07:59.885Z,-1.60
2023-01-05T11:10:46.843Z,-1.60
2023-01-05T11:13:42.963Z,-1.80
2023-01-05T11:16:26.932Z,-1.80
2023-01-05T11:19:13.000Z,-1.80
2023-01-05T11:22:02.149Z,-1.90
2023-01-05T11:24:43.056Z,-2.00
2023-01-05T11:27:32.853Z,-2.00
2023-01-05T11:30:24.685Z,-2.00
2023-01-05T11:33:11.372Z,-2.10
2023-01-05T11:35:56.467Z,-2.10
2023-01-05T11:38:43.839Z,-2.20
2023-01-05T11:44:05.554Z,-2.40
2023-01-05T11:46:54.129Z,-2.40
2023-01-05T11:49:41.109Z,-2.50
2023-01-05T11:52:34.933Z,-2.40
2023-01-05T11:55:30.509Z,-2.40
2023-01-05T11:58:29.832Z,-2.40
2023-01-05T12:01:29.407Z,-2.40
2023-01-05T12:04:27.998Z,-2.50
2023-01-05T12:07:21.963Z,-2.70
2023-01-05T12:10:04.919Z,-2.70
2023-01-05T12:13:12.976Z,-2.70
2023-01-05T12:16:02.282Z,-2.60
2023-01-05T12:19:10.950Z,-2.70
2023-01-05T12:22:02.431Z,-2.80
2023-01-05T12:24:55.929Z,-2.80
2023-01-05T12:27:52.034Z,-3.00
2023-01-05T12:32:34.286Z,-3.00
2023-01-05T12:36:50.927Z,-2.90
2023-01-05T12:39:50.980Z,-2.90
2023-01-05T12:42:47.659Z,-2.90
2023-01-05T12:45:32.189Z,-2.90
2023-01-05T12:48:32.958Z,-3.00
2023-01-05T12:51:24.967Z,-3.10
2023-01-05T12:54:08.039Z,-3.20
2023-01-05T12:57:06.910Z,-3.20
2023-01-05T12:59:49.985Z,-3.20
2023-01-05T13:02:41.995Z,-3.00
2023-01-05T13:05:35.026Z,-2.90
2023-01-05T13:08:26.976Z,-2.90
2023-01-05T13:11:17.252Z,-2.90
2023-01-05T13:13:59.873Z,-2.90
2023-01-05T13:16:47.978Z,-2.90
2023-01-05T13:19:35.037Z,-3.00
2023-01-05T13:22:26.979Z,-3.20
2023-01-05T13:25:26.114Z,-3.40
2023-01-05T13:28:12.991Z,-3.50
2023-01-05T13:30:59.097Z,-3.50
2023-01-05T13:33:48.991Z,-3.60
2023-01-05T13:39:17.988Z,-3.90
2023-01-05T13:42:24.164Z,-3.90
2023-01-05T13:45:22.012Z,-4.00
2023-01-05T13:48:44.367Z,-4.10
2023-01-05T13:51:28.052Z,-4.20
2023-01-05T13:54:22.195Z,-4.20
2023-01-05T13:57:03.410Z,-4.20
2023-01-05T14:00:00.614Z,-4.30
2023-01-05T14:02:47.002Z,-4.30
2023-01-05T14:05:38.315Z,-4.30
2023-01-05T14:08:24.324Z,-4.40
2023-01-05T14:11:13.976Z,-4.40
2023-01-05T14:13:59.740Z,-4.40
2023-01-05T14:16:47.080Z,-4.50
2023-01-05T14:19:31.202Z,-4.50
2023-01-05T14:22:27.032Z,-4.60
2023-01-05T14:25:27.125Z,-4.70
2023-01-05T14:28:24.053Z,-4.70
2023-01-05T14:31:28.807Z,-4.80
2023-01-05T14:34:22.057Z,-4.70
2023-01-05T14:37:05.085Z,-4.70
2023-01-05T14:39:53.196Z,-4.80
2023-01-05T14:42:50.052Z,-4.80
2023-01-05T14:45:38.216Z,-4.80
2023-01-05T14:48:45.088Z,-4.90
2023-01-05T14:51:33.184Z,-4.90
2023-01-05T14:54:13.010Z,-4.90
2023-01-05T14:57:12.135Z,-5.00
2023-01-05T14:59:59.051Z,-5.00
2023-01-05T15:02:55.658Z,-5.00
2023-01-05T15:05:37.119Z,-5.00
2023-01-05T15:08:34.155Z,-5.00
2023-01-05T15:11:22.968Z,-5.00
2023-01-05T15:14:29.082Z,-5.00
2023-01-05T15:17:18.128Z,-5.00
2023-01-05T15:20:24.098Z,-5.00
2023-01-05T15:23:23.132Z,-5.00
2023-01-05T15:26:24.125Z,-5.00
2023-01-05T15:29:16.190Z,-5.00
2023-01-05T15:32:09.993Z,-5.10
2023-01-05T15:35:01.191Z,-5.00
2023-01-05T15:37:48.203Z,-5.10
2023-01-05T15:40:28.216Z,-5.10
2023-01-05T15:43:21.103Z,-5.00
2023-01-05T15:46:01.281Z,-5.10
2023-01-05T15:48:49.106Z,-5.10
2023-01-05T15:51:31.227Z,-5.10
2023-01-05T15:54:27.014Z,-5.10
2023-01-05T15:57:15.053Z,-5.10
2023-01-05T16:00:02.496Z,-5.20
2023-01-05T16:02:45.067Z,-5.20
2023-01-05T16:05:34.179Z,-5.30
2023-01-05T16:08:21.142Z,-5.30
2023-01-05T16:11:09.793Z,-5.40
2023-01-05T16:13:52.152Z,-5.40
2023-01-05T16:16:52.652Z,-5.50
2023-01-05T16:19:43.339Z,-5.50
2023-01-05T16:22:49.100Z,-5.50
2023-01-05T16:25:34.174Z,-5.60
2023-01-05T16:28:25.127Z,-5.60
2023-01-05T16:31:05.439Z,-5.60
2023-01-05T16:33:52.110Z,-5.60
2023-01-05T16:36:32.307Z,-5.70
2023-01-05T16:39:20.070Z,-5.80
2023-01-05T16:42:28.916Z,-5.80
2023-01-05T16:45:25.085Z,-5.80
2023-01-05T16:48:36.155Z,-5.80
2023-01-05T16:51:23.130Z,-5.70
2023-01-05T16:54:12.353Z,-5.80
2023-01-05T16:57:03.357Z,-5.80
2023-01-05T16:59:46.202Z,-5.90
2023-01-05T17:02:33.344Z,-5.90
2023-01-05T17:05:14.106Z,-6.00
2023-01-05T17:08:19.254Z,-6.10
2023-01-05T17:11:01.215Z,-6.10
2023-01-05T17:13:56.824Z,-6.20
2023-01-05T17:16:37.242Z,-6.20
2023-01-05T17:19:26.301Z,-6.30
2023-01-05T17:22:08.932Z,-6.30
2023-01-05T17:24:58.276Z,-6.40
2023-01-05T17:27:38.195Z,-6.50
2023-01-05T17:30:26.408Z,-6.60
2023-01-05T17:33:06.124Z,-6.60
2023-01-05T17:35:53.288Z,-6.60
2023-01-05T17:38:33.213Z,-6.60
2023-01-05T17:41:15.992Z,-6.60
2023-01-05T17:44:04.191Z,-6.60
2023-01-05T17:46:58.226Z,-6.60
2023-01-05T17:49:45.340Z,-6.60
2023-01-05T17:52:25.232Z,-6.70
2023-01-05T17:55:12.233Z,-6.70
2023-01-05T17:57:53.351Z,-6.70
2023-01-05T18:03:30.161Z,-6.80
2023-01-05T18:06:17.237Z,-6.80
2023-01-05T18:08:57.276Z,-6.90
2023-01-05T18:11:44.263Z,-6.90
2023-01-05T18:14:24.181Z,-6.90
2023-01-05T18:17:11.158Z,-7.00
2023-01-05T18:19:58.259Z,-7.00
2023-01-05T18:22:45.436Z,-7.00
2023-01-05T18:25:25.172Z,-7.10
2023-01-05T18:28:12.358Z,-7.10
2023-01-05T18:33:37.363Z,-7.10
2023-01-05T18:36:25.170Z,-7.10
2023-01-05T18:39:14.372Z,-7.20
2023-01-05T18:42:01.241Z,-7.20
2023-01-05T18:44:50.374Z,-7.30
2023-01-05T18:47:30.269Z,-7.30
2023-01-05T18:50:24.627Z,-7.30
2023-01-05T18:53:12.074Z,-7.40
2023-01-05T18:55:53.303Z,-7.40
2023-01-05T18:58:40.375Z,-7.40
2023-01-05T19:01:22.296Z,-7.40
2023-01-05T19:04:09.275Z,-7.50
2023-01-05T19:06:49.277Z,-7.50
2023-01-05T19:09:36.317Z,-7.50
2023-01-05T19:12:16.228Z,-7.50
2023-01-05T19:15:03.448Z,-7.60
2023-01-05T19:17:46.321Z,-7.60
2023-01-05T19:20:33.468Z,-7.60
2023-01-05T19:23:13.321Z,-7.60
2023-01-05T19:26:00.401Z,-7.60
2023-01-05T19:28:44.294Z,-7.70
2023-01-05T19:31:31.496Z,-7.70
2023-01-05T19:34:12.315Z,-7.70
2023-01-05T19:36:59.484Z,-7.80
2023-01-05T19:39:39.305Z,-7.90
2023-01-05T19:42:26.363Z,-7.90
2023-01-05T19:45:06.328Z,-7.90
2023-01-05T19:48:00.328Z,-8.00
2023-01-05T19:50:47.310Z,-8.10
2023-01-05T19:53:34.293Z,-8.10
2023-01-05T19:56:22.340Z,-8.10
2023-01-05T19:59:04.480Z,-8.10
2023-01-05T20:01:51.406Z,-8.10
2023-01-05T20:04:31.317Z,-8.10
2023-01-05T20:07:18.653Z,-8.10
2023-01-05T20:09:58.382Z,-8.10
2023-01-05T20:12:45.396Z,-8.20
2023-01-05T20:15:25.323Z,-8.20
2023-01-05T20:18:12.457Z,-8.10
2023-01-05T20:20:52.385Z,-8.20
2023-01-05T20:23:43.449Z,-8.20
2023-01-05T20:26:24.359Z,-8.20
2023-01-05T20:29:11.452Z,-8.30
2023-01-05T20:32:11.389Z,-8.30
2023-01-05T20:35:00.347Z,-8.30
2023-01-05T20:37:40.322Z,-8.30
2023-01-05T20:40:27.537Z,-8.30
2023-01-05T20:43:07.351Z,-8.30
2023-01-05T20:45:54.532Z,-8.40
2023-01-05T20:48:48.490Z,-8.30
2023-01-05T20:51:42.397Z,-8.40
2023-01-05T20:54:29.353Z,-8.40
2023-01-05T20:57:16.368Z,-8.40
2023-01-05T20:59:56.602Z,-8.40
2023-01-05T21:02:43.372Z,-8.40
2023-01-05T21:05:30.526Z,-8.40
2023-01-05T21:08:10.387Z,-8.50
2023-01-05T21:11:04.411Z,-8.40
2023-01-05T21:13:44.418Z,-8.50
2023-01-05T21:16:35.462Z,-8.50
2023-01-05T21:19:16.642Z,-8.50
2023-01-05T21:22:03.570Z,-8.50
2023-01-05T21:24:44.397Z,-8.60
2023-01-05T21:27:31.517Z,-8.60
2023-01-05T21:30:11.400Z,-8.60
2023-01-05T21:32:58.439Z,-8.60
2023-01-05T21:35:38.419Z,-8.60
2023-01-05T21:39:01.079Z,-8.70
2023-01-05T21:42:00.019Z,-8.70
2023-01-05T21:44:40.438Z,-8.70
2023-01-05T21:47:27.560Z,-8.80
2023-01-05T21:50:15.354Z,-8.80
2023-01-05T21:53:25.000Z,-8.80
2023-01-05T21:56:33.443Z,-8.80
2023-01-05T21:59:13.478Z,-8.90
2023-01-05T22:02:01.491Z,-8.90
2023-01-05T22:04:48.377Z,-8.90
2023-01-05T22:07:35.466Z,-8.90
2023-01-05T22:10:16.463Z,-8.90
2023-01-05T22:13:06.300Z,-8.90
2023-01-05T22:15:46.436Z,-9.00
2023-01-05T22:18:33.713Z,-9.00
2023-01-05T22:21:15.429Z,-9.00
2023-01-05T22:23:55.619Z,-9.00
2023-01-05T22:26:42.437Z,-9.00
2023-01-05T22:29:29.611Z,-9.10
2023-01-05T22:32:09.400Z,-9.00
2023-01-05T22:34:56.541Z,-9.00
2023-01-05T22:37:36.465Z,-9.00
2023-01-05T22:40:23.596Z,-9.10
2023-01-05T22:43:03.521Z,-9.10
2023-01-05T22:45:50.594Z,-9.10
2023-01-05T22:48:30.485Z,-9.10
2023-01-05T22:51:18.819Z,-9.10
2023-01-05T22:54:11.142Z,-9.10
2023-01-05T22:57:07.957Z,-9.10
2023-01-05T22:59:51.221Z,-9.10
2023-01-05T23:02:40.296Z,-9.10
2023-01-05T23:08:37.482Z,-9.20
2023-01-05T23:11:19.622Z,-9.20
2023-01-05T23:14:07.624Z,-9.20
2023-01-05T23:16:59.376Z,-9.10
2023-01-05T23:20:08.178Z,-9.20
2023-01-05T23:23:40.485Z,-9.20
2023-01-05T23:29:48.680Z,-9.30
2023-01-05T23:32:34.353Z,-9.30
2023-01-05T23:35:54.241Z,-9.30
2023-01-05T23:38:35.831Z,-9.30
2023-01-05T23:41:22.502Z,-9.30
2023-01-05T23:44:02.641Z,-9.40
2023-01-05T23:46:49.534Z,-9.40
2023-01-05T23:49:36.578Z,-9.40
2023-01-05T23:52:16.516Z,-9.40
2023-01-05T23:55:07.009Z,-9.40
2023-01-05T23:57:46.509Z,-9.30
